sensor_id;sensor_type;location;lat;lon;timestamp;temperature;humidity
80134;SHT30;69443;51.442;10.564;2023-04-25T00:01:21;9.24;55.87
80134;SHT30;69443;51.442;10.564;2023-04-25T00:03:49;9.23;55.86
80134;SHT30;69443;51.442;10.564;2023-04-25T00:06:15;9.23;55.97
80134;SHT30;69443;51.442;10.564;2023-04-25T00:08:41;9.18;56.03
80134;SHT30;69443;51.442;10.564;2023-04-25T00:11:06;9.15;56.17
80134;SHT30;69443;51.442;10.564;2023-04-25T00:13:31;9.13;56.13
80134;SHT30;69443;51.442;10.564;2023-04-25T00:15:57;9.13;56.09
80134;SHT30;69443;51.442;10.564;2023-04-25T00:18:24;9.09;56.13
80134;SHT30;69443;51.442;10.564;2023-04-25T00:20:49;9.05;56.28
80134;SHT30;69443;51.442;10.564;2023-04-25T00:23:18;9.04;56.11
80134;SHT30;69443;51.442;10.564;2023-04-25T00:25:44;9.01;56.24
80134;SHT30;69443;51.442;10.564;2023-04-25T00:28:10;8.98;56.15
80134;SHT30;69443;51.442;10.564;2023-04-25T00:30:36;8.96;56.06
80134;SHT30;69443;51.442;10.564;2023-04-25T00:33:01;8.93;56.23
80134;SHT30;69443;51.442;10.564;2023-04-25T00:35:27;8.92;56.13
80134;SHT30;69443;51.442;10.564;2023-04-25T00:37:52;8.89;56.25
80134;SHT30;69443;51.442;10.564;2023-04-25T00:40:17;8.87;56.22
80134;SHT30;69443;51.442;10.564;2023-04-25T00:42:43;8.84;56.28
80134;SHT30;69443;51.442;10.564;2023-04-25T00:45:12;8.78;56.37
80134;SHT30;69443;51.442;10.564;2023-04-25T00:47:39;8.78;56.25
80134;SHT30;69443;51.442;10.564;2023-04-25T00:50:06;8.72;56.39
80134;SHT30;69443;51.442;10.564;2023-04-25T00:52:32;8.72;56.39
80134;SHT30;69443;51.442;10.564;2023-04-25T00:54:57;8.70;56.42
80134;SHT30;69443;51.442;10.564;2023-04-25T00:57:23;8.67;56.58
80134;SHT30;69443;51.442;10.564;2023-04-25T00:59:50;8.65;56.49
80134;SHT30;69443;51.442;10.564;2023-04-25T01:02:16;8.61;56.44
80134;SHT30;69443;51.442;10.564;2023-04-25T01:04:41;8.59;56.31
80134;SHT30;69443;51.442;10.564;2023-04-25T01:07:06;8.56;56.53
80134;SHT30;69443;51.442;10.564;2023-04-25T01:09:32;8.51;56.53
80134;SHT30;69443;51.442;10.564;2023-04-25T01:11:57;8.53;56.55
80134;SHT30;69443;51.442;10.564;2023-04-25T01:14:23;8.47;56.64
80134;SHT30;69443;51.442;10.564;2023-04-25T01:16:48;8.47;56.62
80134;SHT30;69443;51.442;10.564;2023-04-25T01:19:16;8.44;56.79
80134;SHT30;69443;51.442;10.564;2023-04-25T01:21:43;8.42;56.75
80134;SHT30;69443;51.442;10.564;2023-04-25T01:24:08;8.43;56.77
80134;SHT30;69443;51.442;10.564;2023-04-25T01:26:35;8.36;56.86
80134;SHT30;69443;51.442;10.564;2023-04-25T01:29:01;8.34;56.74
80134;SHT30;69443;51.442;10.564;2023-04-25T01:31:27;8.34;56.82
80134;SHT30;69443;51.442;10.564;2023-04-25T01:33:52;8.29;56.73
80134;SHT30;69443;51.442;10.564;2023-04-25T01:36:18;8.32;56.72
80134;SHT30;69443;51.442;10.564;2023-04-25T01:38:44;8.29;56.72
80134;SHT30;69443;51.442;10.564;2023-04-25T01:41:11;8.23;57.00
80134;SHT30;69443;51.442;10.564;2023-04-25T01:43:36;8.25;56.86
80134;SHT30;69443;51.442;10.564;2023-04-25T01:46:02;8.21;56.84
80134;SHT30;69443;51.442;10.564;2023-04-25T01:48:27;8.17;57.08
80134;SHT30;69443;51.442;10.564;2023-04-25T01:50:53;8.15;57.01
80134;SHT30;69443;51.442;10.564;2023-04-25T01:53:18;8.15;56.86
80134;SHT30;69443;51.442;10.564;2023-04-25T01:55:44;8.09;57.03
80134;SHT30;69443;51.442;10.564;2023-04-25T01:58:09;8.08;57.13
80134;SHT30;69443;51.442;10.564;2023-04-25T02:00:37;8.06;57.06
80134;SHT30;69443;51.442;10.564;2023-04-25T02:03:04;8.03;57.09
80134;SHT30;69443;51.442;10.564;2023-04-25T02:05:34;7.99;57.24
80134;SHT30;69443;51.442;10.564;2023-04-25T02:08:00;8.01;57.14
80134;SHT30;69443;51.442;10.564;2023-04-25T02:10:26;7.97;57.21
80134;SHT30;69443;51.442;10.564;2023-04-25T02:12:51;7.95;57.20
80134;SHT30;69443;51.442;10.564;2023-04-25T02:15:16;7.92;57.18
80134;SHT30;69443;51.442;10.564;2023-04-25T02:17:42;7.92;57.17
80134;SHT30;69443;51.442;10.564;2023-04-25T02:20:07;7.88;57.13
80134;SHT30;69443;51.442;10.564;2023-04-25T02:22:33;7.87;57.26
80134;SHT30;69443;51.442;10.564;2023-04-25T02:25:00;7.84;57.19
80134;SHT30;69443;51.442;10.564;2023-04-25T02:27:26;7.84;57.25
80134;SHT30;69443;51.442;10.564;2023-04-25T02:29:51;7.82;57.16
80134;SHT30;69443;51.442;10.564;2023-04-25T02:32:32;7.77;57.46
80134;SHT30;69443;51.442;10.564;2023-04-25T02:34:59;7.78;57.26
80134;SHT30;69443;51.442;10.564;2023-04-25T02:37:32;7.71;57.30
80134;SHT30;69443;51.442;10.564;2023-04-25T02:39:58;7.69;57.43
80134;SHT30;69443;51.442;10.564;2023-04-25T02:42:23;7.70;57.46
80134;SHT30;69443;51.442;10.564;2023-04-25T02:44:49;7.66;57.71
80134;SHT30;69443;51.442;10.564;2023-04-25T02:47:14;7.63;57.74
80134;SHT30;69443;51.442;10.564;2023-04-25T02:49:40;7.61;57.66
80134;SHT30;69443;51.442;10.564;2023-04-25T02:52:05;7.60;57.70
80134;SHT30;69443;51.442;10.564;2023-04-25T02:54:31;7.61;57.71
80134;SHT30;69443;51.442;10.564;2023-04-25T02:56:56;7.57;57.69
80134;SHT30;69443;51.442;10.564;2023-04-25T02:59:22;7.57;57.60
80134;SHT30;69443;51.442;10.564;2023-04-25T03:01:47;7.56;57.84
80134;SHT30;69443;51.442;10.564;2023-04-25T03:04:12;7.53;57.77
80134;SHT30;69443;51.442;10.564;2023-04-25T03:06:38;7.52;57.83
80134;SHT30;69443;51.442;10.564;2023-04-25T03:09:03;7.50;57.86
80134;SHT30;69443;51.442;10.564;2023-04-25T03:11:29;7.47;57.95
80134;SHT30;69443;51.442;10.564;2023-04-25T03:13:54;7.50;57.91
80134;SHT30;69443;51.442;10.564;2023-04-25T03:16:20;7.47;58.01
80134;SHT30;69443;51.442;10.564;2023-04-25T03:18:45;7.44;57.94
80134;SHT30;69443;51.442;10.564;2023-04-25T03:21:10;7.44;57.90
80134;SHT30;69443;51.442;10.564;2023-04-25T03:23:36;7.43;57.91
80134;SHT30;69443;51.442;10.564;2023-04-25T03:26:01;7.40;57.97
80134;SHT30;69443;51.442;10.564;2023-04-25T03:28:27;7.37;58.09
80134;SHT30;69443;51.442;10.564;2023-04-25T03:30:53;7.37;58.08
80134;SHT30;69443;51.442;10.564;2023-04-25T03:33:19;7.35;58.09
80134;SHT30;69443;51.442;10.564;2023-04-25T03:35:44;7.35;57.98
80134;SHT30;69443;51.442;10.564;2023-04-25T03:38:10;7.33;58.12
80134;SHT30;69443;51.442;10.564;2023-04-25T03:40:35;7.33;58.06
80134;SHT30;69443;51.442;10.564;2023-04-25T03:43:00;7.27;58.12
80134;SHT30;69443;51.442;10.564;2023-04-25T03:45:26;7.29;58.22
80134;SHT30;69443;51.442;10.564;2023-04-25T03:47:51;7.26;58.13
80134;SHT30;69443;51.442;10.564;2023-04-25T03:50:16;7.26;58.12
80134;SHT30;69443;51.442;10.564;2023-04-25T03:52:43;7.23;58.15
80134;SHT30;69443;51.442;10.564;2023-04-25T03:55:08;7.22;58.11
80134;SHT30;69443;51.442;10.564;2023-04-25T03:57:34;7.22;58.20
80134;SHT30;69443;51.442;10.564;2023-04-25T03:59:59;7.20;58.21
80134;SHT30;69443;51.442;10.564;2023-04-25T04:02:25;7.22;58.15
80134;SHT30;69443;51.442;10.564;2023-04-25T04:04:50;7.20;58.22
80134;SHT30;69443;51.442;10.564;2023-04-25T04:07:16;7.19;58.39
80134;SHT30;69443;51.442;10.564;2023-04-25T04:09:41;7.20;58.27
80134;SHT30;69443;51.442;10.564;2023-04-25T04:12:06;7.22;58.36
80134;SHT30;69443;51.442;10.564;2023-04-25T04:14:32;7.22;58.39
80134;SHT30;69443;51.442;10.564;2023-04-25T04:16:57;7.20;58.39
80134;SHT30;69443;51.442;10.564;2023-04-25T04:19:22;7.22;58.37
80134;SHT30;69443;51.442;10.564;2023-04-25T04:21:48;7.25;58.36
80134;SHT30;69443;51.442;10.564;2023-04-25T04:24:13;7.25;58.44
80134;SHT30;69443;51.442;10.564;2023-04-25T04:26:40;7.25;58.47
80134;SHT30;69443;51.442;10.564;2023-04-25T04:29:05;7.23;58.62
80134;SHT30;69443;51.442;10.564;2023-04-25T04:31:32;7.25;58.53
80134;SHT30;69443;51.442;10.564;2023-04-25T04:33:57;7.27;58.67
80134;SHT30;69443;51.442;10.564;2023-04-25T04:36:23;7.26;58.70
80134;SHT30;69443;51.442;10.564;2023-04-25T04:38:51;7.27;58.66
80134;SHT30;69443;51.442;10.564;2023-04-25T04:41:17;7.30;58.66
80134;SHT30;69443;51.442;10.564;2023-04-25T04:43:44;7.32;58.75
80134;SHT30;69443;51.442;10.564;2023-04-25T04:46:10;7.33;58.91
80134;SHT30;69443;51.442;10.564;2023-04-25T04:48:35;7.35;58.91
80134;SHT30;69443;51.442;10.564;2023-04-25T04:51:00;7.33;58.99
80134;SHT30;69443;51.442;10.564;2023-04-25T04:53:26;7.39;59.07
80134;SHT30;69443;51.442;10.564;2023-04-25T04:55:52;7.40;59.16
80134;SHT30;69443;51.442;10.564;2023-04-25T04:58:17;7.40;59.18
80134;SHT30;69443;51.442;10.564;2023-04-25T05:00:43;7.44;59.23
80134;SHT30;69443;51.442;10.564;2023-04-25T05:03:08;7.43;59.35
80134;SHT30;69443;51.442;10.564;2023-04-25T05:05:34;7.47;59.46
80134;SHT30;69443;51.442;10.564;2023-04-25T05:07:59;7.49;59.57
80134;SHT30;69443;51.442;10.564;2023-04-25T05:10:25;7.50;59.65
80134;SHT30;69443;51.442;10.564;2023-04-25T05:12:50;7.53;59.60
80134;SHT30;69443;51.442;10.564;2023-04-25T05:15:16;7.56;59.83
80134;SHT30;69443;51.442;10.564;2023-04-25T05:17:41;7.57;59.84
80134;SHT30;69443;51.442;10.564;2023-04-25T05:20:07;7.59;59.95
80134;SHT30;69443;51.442;10.564;2023-04-25T05:22:34;7.63;59.96
80134;SHT30;69443;51.442;10.564;2023-04-25T05:25:00;7.66;60.10
80134;SHT30;69443;51.442;10.564;2023-04-25T05:27:25;7.64;60.18
80134;SHT30;69443;51.442;10.564;2023-04-25T05:29:51;7.66;60.12
80134;SHT30;69443;51.442;10.564;2023-04-25T05:32:17;7.67;60.27
80134;SHT30;69443;51.442;10.564;2023-04-25T05:34:43;7.70;60.31
80134;SHT30;69443;51.442;10.564;2023-04-25T05:37:08;7.71;60.35
80134;SHT30;69443;51.442;10.564;2023-04-25T05:39:33;7.75;60.48
80134;SHT30;69443;51.442;10.564;2023-04-25T05:41:59;7.77;60.55
80134;SHT30;69443;51.442;10.564;2023-04-25T05:44:24;7.80;60.57
80134;SHT30;69443;51.442;10.564;2023-04-25T05:46:50;7.82;60.58
80134;SHT30;69443;51.442;10.564;2023-04-25T05:49:15;7.85;60.62
80134;SHT30;69443;51.442;10.564;2023-04-25T05:51:41;7.88;60.69
80134;SHT30;69443;51.442;10.564;2023-04-25T05:54:06;7.91;60.67
80134;SHT30;69443;51.442;10.564;2023-04-25T05:56:31;7.88;60.67
80134;SHT30;69443;51.442;10.564;2023-04-25T05:58:57;7.89;60.82
80134;SHT30;69443;51.442;10.564;2023-04-25T06:01:22;7.91;60.84
80134;SHT30;69443;51.442;10.564;2023-04-25T06:03:48;7.94;60.86
80134;SHT30;69443;51.442;10.564;2023-04-25T06:06:13;7.95;60.92
80134;SHT30;69443;51.442;10.564;2023-04-25T06:08:39;7.94;61.00
80134;SHT30;69443;51.442;10.564;2023-04-25T06:11:05;7.97;61.09
80134;SHT30;69443;51.442;10.564;2023-04-25T06:13:31;7.98;61.17
80134;SHT30;69443;51.442;10.564;2023-04-25T06:15:56;8.01;61.19
80134;SHT30;69443;51.442;10.564;2023-04-25T06:18:22;7.99;61.22
80134;SHT30;69443;51.442;10.564;2023-04-25T06:20:47;8.02;61.24
80134;SHT30;69443;51.442;10.564;2023-04-25T06:23:12;8.05;61.25
80134;SHT30;69443;51.442;10.564;2023-04-25T06:25:38;8.05;61.30
80134;SHT30;69443;51.442;10.564;2023-04-25T06:28:03;8.06;61.32
80134;SHT30;69443;51.442;10.564;2023-04-25T06:30:28;8.08;61.50
80134;SHT30;69443;51.442;10.564;2023-04-25T06:32:55;8.06;61.63
80134;SHT30;69443;51.442;10.564;2023-04-25T06:35:20;8.09;61.60
80134;SHT30;69443;51.442;10.564;2023-04-25T06:37:46;8.09;61.61
80134;SHT30;69443;51.442;10.564;2023-04-25T06:40:11;8.12;61.75
80134;SHT30;69443;51.442;10.564;2023-04-25T06:42:36;8.12;61.83
80134;SHT30;69443;51.442;10.564;2023-04-25T06:45:02;8.10;61.88
80134;SHT30;69443;51.442;10.564;2023-04-25T06:47:28;8.15;62.00
80134;SHT30;69443;51.442;10.564;2023-04-25T06:49:55;8.13;62.01
80134;SHT30;69443;51.442;10.564;2023-04-25T06:52:20;8.13;62.12
80134;SHT30;69443;51.442;10.564;2023-04-25T06:54:45;8.17;62.13
80134;SHT30;69443;51.442;10.564;2023-04-25T06:57:11;8.17;62.10
80134;SHT30;69443;51.442;10.564;2023-04-25T06:59:36;8.16;62.10
80134;SHT30;69443;51.442;10.564;2023-04-25T07:02:01;8.17;62.13
80134;SHT30;69443;51.442;10.564;2023-04-25T07:04:27;8.21;62.14
80134;SHT30;69443;51.442;10.564;2023-04-25T07:06:52;8.19;62.31
80134;SHT30;69443;51.442;10.564;2023-04-25T07:09:18;8.21;62.23
80134;SHT30;69443;51.442;10.564;2023-04-25T07:11:43;8.25;62.22
80134;SHT30;69443;51.442;10.564;2023-04-25T07:14:09;8.25;62.16
80134;SHT30;69443;51.442;10.564;2023-04-25T07:16:34;8.29;62.06
80134;SHT30;69443;51.442;10.564;2023-04-25T07:19:00;8.32;62.06
80134;SHT30;69443;51.442;10.564;2023-04-25T07:21:25;8.32;62.10
80134;SHT30;69443;51.442;10.564;2023-04-25T07:23:51;8.33;62.09
80134;SHT30;69443;51.442;10.564;2023-04-25T07:26:16;8.36;62.01
80134;SHT30;69443;51.442;10.564;2023-04-25T07:28:42;8.39;61.93
80134;SHT30;69443;51.442;10.564;2023-04-25T07:31:08;8.42;61.99
80134;SHT30;69443;51.442;10.564;2023-04-25T07:33:33;8.46;61.87
80134;SHT30;69443;51.442;10.564;2023-04-25T07:35:59;8.49;61.84
80134;SHT30;69443;51.442;10.564;2023-04-25T07:38:25;8.49;61.88
80134;SHT30;69443;51.442;10.564;2023-04-25T07:40:51;8.49;61.80
80134;SHT30;69443;51.442;10.564;2023-04-25T07:43:16;8.53;61.68
80134;SHT30;69443;51.442;10.564;2023-04-25T07:45:45;8.50;61.72
80134;SHT30;69443;51.442;10.564;2023-04-25T07:48:11;8.50;61.75
80134;SHT30;69443;51.442;10.564;2023-04-25T07:50:37;8.53;61.77
80134;SHT30;69443;51.442;10.564;2023-04-25T07:53:03;8.51;61.74
80134;SHT30;69443;51.442;10.564;2023-04-25T07:55:29;8.51;61.74
80134;SHT30;69443;51.442;10.564;2023-04-25T07:57:54;8.53;61.69
80134;SHT30;69443;51.442;10.564;2023-04-25T08:00:19;8.57;61.70
80134;SHT30;69443;51.442;10.564;2023-04-25T08:02:45;8.59;61.52
80134;SHT30;69443;51.442;10.564;2023-04-25T08:05:10;8.60;61.56
80134;SHT30;69443;51.442;10.564;2023-04-25T08:07:39;8.64;61.40
80134;SHT30;69443;51.442;10.564;2023-04-25T08:10:06;8.64;61.33
80134;SHT30;69443;51.442;10.564;2023-04-25T08:12:32;8.70;61.24
80134;SHT30;69443;51.442;10.564;2023-04-25T08:14:57;8.71;61.16
80134;SHT30;69443;51.442;10.564;2023-04-25T08:17:23;8.75;60.98
80134;SHT30;69443;51.442;10.564;2023-04-25T08:19:48;8.79;60.92
80134;SHT30;69443;51.442;10.564;2023-04-25T08:22:14;8.84;60.87
80134;SHT30;69443;51.442;10.564;2023-04-25T08:24:40;8.88;60.79
80134;SHT30;69443;51.442;10.564;2023-04-25T08:27:05;8.91;60.64
80134;SHT30;69443;51.442;10.564;2023-04-25T08:29:32;8.93;60.55
80134;SHT30;69443;51.442;10.564;2023-04-25T08:31:58;8.99;60.42
80134;SHT30;69443;51.442;10.564;2023-04-25T08:34:23;9.06;60.37
80134;SHT30;69443;51.442;10.564;2023-04-25T08:36:48;9.11;60.20
80134;SHT30;69443;51.442;10.564;2023-04-25T08:39:14;9.13;59.99
80134;SHT30;69443;51.442;10.564;2023-04-25T08:41:40;9.16;59.94
80134;SHT30;69443;51.442;10.564;2023-04-25T08:44:07;9.24;59.94
80134;SHT30;69443;51.442;10.564;2023-04-25T08:46:35;9.29;59.88
80134;SHT30;69443;51.442;10.564;2023-04-25T08:49:02;9.34;59.77
80134;SHT30;69443;51.442;10.564;2023-04-25T08:51:33;9.37;59.73
80134;SHT30;69443;51.442;10.564;2023-04-25T08:54:24;9.41;59.64
80134;SHT30;69443;51.442;10.564;2023-04-25T08:56:54;9.51;59.40
80134;SHT30;69443;51.442;10.564;2023-04-25T08:59:19;9.55;59.31
80134;SHT30;69443;51.442;10.564;2023-04-25T09:01:45;9.61;59.26
80134;SHT30;69443;51.442;10.564;2023-04-25T09:04:12;9.65;59.28
80134;SHT30;69443;51.442;10.564;2023-04-25T09:06:37;9.67;59.24
80134;SHT30;69443;51.442;10.564;2023-04-25T09:09:07;9.71;59.12
80134;SHT30;69443;51.442;10.564;2023-04-25T09:11:34;9.74;59.10
80134;SHT30;69443;51.442;10.564;2023-04-25T09:19:23;9.95;58.69
80134;SHT30;69443;51.442;10.564;2023-04-25T09:21:49;9.98;58.60
80134;SHT30;69443;51.442;10.564;2023-04-25T09:24:15;10.06;58.53
80134;SHT30;69443;51.442;10.564;2023-04-25T09:26:40;10.12;58.48
80134;SHT30;69443;51.442;10.564;2023-04-25T09:29:07;10.14;58.32
80134;SHT30;69443;51.442;10.564;2023-04-25T09:31:33;10.23;58.22
80134;SHT30;69443;51.442;10.564;2023-04-25T09:33:59;10.33;58.19
80134;SHT30;69443;51.442;10.564;2023-04-25T09:36:27;10.40;57.97
80134;SHT30;69443;51.442;10.564;2023-04-25T09:38:52;10.46;57.88
80134;SHT30;69443;51.442;10.564;2023-04-25T09:41:23;10.57;57.71
80134;SHT30;69443;51.442;10.564;2023-04-25T09:43:49;10.67;57.52
80134;SHT30;69443;51.442;10.564;2023-04-25T09:46:14;10.75;57.34
80134;SHT30;69443;51.442;10.564;2023-04-25T09:48:47;10.88;57.10
80134;SHT30;69443;51.442;10.564;2023-04-25T09:51:13;10.98;57.21
80134;SHT30;69443;51.442;10.564;2023-04-25T09:53:43;11.06;56.83
80134;SHT30;69443;51.442;10.564;2023-04-25T09:56:10;11.16;56.67
80134;SHT30;69443;51.442;10.564;2023-04-25T09:58:38;11.27;56.57
80134;SHT30;69443;51.442;10.564;2023-04-25T10:01:06;11.40;56.26
80134;SHT30;69443;51.442;10.564;2023-04-25T10:03:34;11.50;56.10
80134;SHT30;69443;51.442;10.564;2023-04-25T10:06:01;11.58;55.99
80134;SHT30;69443;51.442;10.564;2023-04-25T10:08:37;11.60;55.79
80134;SHT30;69443;51.442;10.564;2023-04-25T10:11:08;11.64;55.82
80134;SHT30;69443;51.442;10.564;2023-04-25T10:13:35;11.67;55.95
80134;SHT30;69443;51.442;10.564;2023-04-25T10:16:04;11.62;55.89
80134;SHT30;69443;51.442;10.564;2023-04-25T10:18:31;11.61;56.20
80134;SHT30;69443;51.442;10.564;2023-04-25T10:21:03;11.55;56.13
80134;SHT30;69443;51.442;10.564;2023-04-25T10:23:30;11.48;56.32
80134;SHT30;69443;51.442;10.564;2023-04-25T10:25:56;11.44;56.50
80134;SHT30;69443;51.442;10.564;2023-04-25T10:28:22;11.37;56.68
80134;SHT30;69443;51.442;10.564;2023-04-25T10:31:04;11.34;56.75
80134;SHT30;69443;51.442;10.564;2023-04-25T10:33:38;11.30;56.48
80134;SHT30;69443;51.442;10.564;2023-04-25T10:36:23;11.27;56.71
80134;SHT30;69443;51.442;10.564;2023-04-25T10:38:50;11.26;56.93
80134;SHT30;69443;51.442;10.564;2023-04-25T10:41:20;11.23;56.80
80134;SHT30;69443;51.442;10.564;2023-04-25T10:43:47;11.26;56.85
80134;SHT30;69443;51.442;10.564;2023-04-25T10:46:25;11.26;56.77
80134;SHT30;69443;51.442;10.564;2023-04-25T10:51:34;11.27;56.72
80134;SHT30;69443;51.442;10.564;2023-04-25T10:54:04;11.30;56.75
80134;SHT30;69443;51.442;10.564;2023-04-25T10:59:08;11.40;56.62
80134;SHT30;69443;51.442;10.564;2023-04-25T11:01:43;11.45;56.26
80134;SHT30;69443;51.442;10.564;2023-04-25T11:04:24;11.51;56.09
80134;SHT30;69443;51.442;10.564;2023-04-25T11:09:28;11.61;56.21
80134;SHT30;69443;51.442;10.564;2023-04-25T11:11:54;11.65;56.19
80134;SHT30;69443;51.442;10.564;2023-04-25T11:14:20;11.68;56.09
80134;SHT30;69443;51.442;10.564;2023-04-25T11:16:47;11.71;56.08
80134;SHT30;69443;51.442;10.564;2023-04-25T11:19:12;11.74;56.03
80134;SHT30;69443;51.442;10.564;2023-04-25T11:21:37;11.77;55.88
80134;SHT30;69443;51.442;10.564;2023-04-25T11:24:04;11.81;55.90
80134;SHT30;69443;51.442;10.564;2023-04-25T11:26:30;11.82;55.82
80134;SHT30;69443;51.442;10.564;2023-04-25T11:28:59;11.85;55.81
80134;SHT30;69443;51.442;10.564;2023-04-25T11:31:25;11.89;55.64
80134;SHT30;69443;51.442;10.564;2023-04-25T11:33:53;11.90;55.62
80134;SHT30;69443;51.442;10.564;2023-04-25T11:36:19;11.95;55.53
80134;SHT30;69443;51.442;10.564;2023-04-25T11:38:44;11.99;55.21
80134;SHT30;69443;51.442;10.564;2023-04-25T11:41:10;12.06;55.50
80134;SHT30;69443;51.442;10.564;2023-04-25T11:43:36;12.06;55.36
80134;SHT30;69443;51.442;10.564;2023-04-25T11:46:06;12.10;55.16
80134;SHT30;69443;51.442;10.564;2023-04-25T11:48:40;12.10;55.00
80134;SHT30;69443;51.442;10.564;2023-04-25T11:51:06;12.10;55.24
80134;SHT30;69443;51.442;10.564;2023-04-25T11:53:32;12.09;55.36
80134;SHT30;69443;51.442;10.564;2023-04-25T11:55:57;12.06;55.38
80134;SHT30;69443;51.442;10.564;2023-04-25T11:58:23;12.00;55.44
80134;SHT30;69443;51.442;10.564;2023-04-25T12:00:50;12.02;55.40
80134;SHT30;69443;51.442;10.564;2023-04-25T12:03:15;11.99;55.59
80134;SHT30;69443;51.442;10.564;2023-04-25T12:05:42;11.90;55.67
80134;SHT30;69443;51.442;10.564;2023-04-25T12:08:14;11.89;55.75
80134;SHT30;69443;51.442;10.564;2023-04-25T12:10:42;11.86;55.67
80134;SHT30;69443;51.442;10.564;2023-04-25T12:13:26;11.85;55.54
80134;SHT30;69443;51.442;10.564;2023-04-25T12:15:55;11.85;55.77
80134;SHT30;69443;51.442;10.564;2023-04-25T12:18:23;11.86;55.69
80134;SHT30;69443;51.442;10.564;2023-04-25T12:20:49;11.88;55.79
80134;SHT30;69443;51.442;10.564;2023-04-25T12:23:14;11.90;55.79
80134;SHT30;69443;51.442;10.564;2023-04-25T12:25:42;11.95;55.72
80134;SHT30;69443;51.442;10.564;2023-04-25T12:28:18;11.93;55.43
80134;SHT30;69443;51.442;10.564;2023-04-25T12:31:05;11.97;55.58
80134;SHT30;69443;51.442;10.564;2023-04-25T12:33:35;11.99;55.56
80134;SHT30;69443;51.442;10.564;2023-04-25T12:36:02;12.00;55.77
80134;SHT30;69443;51.442;10.564;2023-04-25T12:38:38;11.96;55.66
80134;SHT30;69443;51.442;10.564;2023-04-25T12:41:04;11.96;55.69
80134;SHT30;69443;51.442;10.564;2023-04-25T12:43:30;11.93;55.59
80134;SHT30;69443;51.442;10.564;2023-04-25T12:45:57;11.90;55.70
80134;SHT30;69443;51.442;10.564;2023-04-25T12:48:24;11.92;55.66
80134;SHT30;69443;51.442;10.564;2023-04-25T12:50:50;11.92;55.70
80134;SHT30;69443;51.442;10.564;2023-04-25T12:53:21;11.90;55.67
80134;SHT30;69443;51.442;10.564;2023-04-25T12:55:47;11.93;55.67
80134;SHT30;69443;51.442;10.564;2023-04-25T12:58:13;11.90;55.51
80134;SHT30;69443;51.442;10.564;2023-04-25T13:00:39;11.95;55.53
80134;SHT30;69443;51.442;10.564;2023-04-25T13:03:04;11.92;55.67
80134;SHT30;69443;51.442;10.564;2023-04-25T13:05:30;11.92;55.77
80134;SHT30;69443;51.442;10.564;2023-04-25T13:07:56;11.89;55.65
80134;SHT30;69443;51.442;10.564;2023-04-25T13:10:21;11.88;55.74
80134;SHT30;69443;51.442;10.564;2023-04-25T13:12:47;11.86;55.86
80134;SHT30;69443;51.442;10.564;2023-04-25T13:15:12;11.82;55.77
80134;SHT30;69443;51.442;10.564;2023-04-25T13:17:38;11.81;55.63
80134;SHT30;69443;51.442;10.564;2023-04-25T13:20:07;11.83;55.60
80134;SHT30;69443;51.442;10.564;2023-04-25T13:22:34;11.83;55.71
80134;SHT30;69443;51.442;10.564;2023-04-25T13:25:05;11.83;55.67
80134;SHT30;69443;51.442;10.564;2023-04-25T13:27:32;11.81;55.72
80134;SHT30;69443;51.442;10.564;2023-04-25T13:30:00;11.79;55.71
80134;SHT30;69443;51.442;10.564;2023-04-25T13:32:33;11.81;55.67
80134;SHT30;69443;51.442;10.564;2023-04-25T13:34:59;11.79;55.54
80134;SHT30;69443;51.442;10.564;2023-04-25T13:37:24;11.82;55.52
80134;SHT30;69443;51.442;10.564;2023-04-25T13:39:50;11.81;55.46
80134;SHT30;69443;51.442;10.564;2023-04-25T13:42:16;11.82;55.47
80134;SHT30;69443;51.442;10.564;2023-04-25T13:44:41;11.86;55.40
80134;SHT30;69443;51.442;10.564;2023-04-25T13:47:06;11.93;55.41
80134;SHT30;69443;51.442;10.564;2023-04-25T13:49:33;11.92;55.44
80134;SHT30;69443;51.442;10.564;2023-04-25T13:51:58;11.99;55.45
80134;SHT30;69443;51.442;10.564;2023-04-25T13:54:24;12.03;55.35
80134;SHT30;69443;51.442;10.564;2023-04-25T13:56:49;12.09;55.18
80134;SHT30;69443;51.442;10.564;2023-04-25T13:59:15;12.16;55.19
80134;SHT30;69443;51.442;10.564;2023-04-25T14:01:41;12.17;55.16
80134;SHT30;69443;51.442;10.564;2023-04-25T14:04:06;12.22;54.98
80134;SHT30;69443;51.442;10.564;2023-04-25T14:06:32;12.23;54.85
80134;SHT30;69443;51.442;10.564;2023-04-25T14:08:58;12.26;54.93
80134;SHT30;69443;51.442;10.564;2023-04-25T14:11:25;12.27;54.71
80134;SHT30;69443;51.442;10.564;2023-04-25T14:13:50;12.29;54.73
80134;SHT30;69443;51.442;10.564;2023-04-25T14:16:16;12.26;54.84
80134;SHT30;69443;51.442;10.564;2023-04-25T14:18:41;12.24;54.82
80134;SHT30;69443;51.442;10.564;2023-04-25T14:21:07;12.26;54.91
80134;SHT30;69443;51.442;10.564;2023-04-25T14:23:33;12.24;54.82
80134;SHT30;69443;51.442;10.564;2023-04-25T14:25:58;12.24;54.87
80134;SHT30;69443;51.442;10.564;2023-04-25T14:28:23;12.20;54.85
80134;SHT30;69443;51.442;10.564;2023-04-25T14:30:49;12.16;54.66
80134;SHT30;69443;51.442;10.564;2023-04-25T14:33:14;12.12;54.51
80134;SHT30;69443;51.442;10.564;2023-04-25T14:35:40;12.10;53.98
80134;SHT30;69443;51.442;10.564;2023-04-25T14:38:05;12.07;53.99
80134;SHT30;69443;51.442;10.564;2023-04-25T14:40:31;12.03;53.84
80134;SHT30;69443;51.442;10.564;2023-04-25T14:42:57;12.00;54.00
80134;SHT30;69443;51.442;10.564;2023-04-25T14:45:23;11.99;54.06
80134;SHT30;69443;51.442;10.564;2023-04-25T14:47:48;11.97;54.40
80134;SHT30;69443;51.442;10.564;2023-04-25T14:50:14;11.97;54.30
80134;SHT30;69443;51.442;10.564;2023-04-25T14:52:39;11.97;54.51
80134;SHT30;69443;51.442;10.564;2023-04-25T14:55:05;11.99;54.66
80134;SHT30;69443;51.442;10.564;2023-04-25T14:57:32;11.99;54.51
80134;SHT30;69443;51.442;10.564;2023-04-25T14:59:58;12.03;54.79
80134;SHT30;69443;51.442;10.564;2023-04-25T15:02:24;12.06;54.79
80134;SHT30;69443;51.442;10.564;2023-04-25T15:04:50;12.09;54.73
80134;SHT30;69443;51.442;10.564;2023-04-25T15:07:15;12.12;54.63
80134;SHT30;69443;51.442;10.564;2023-04-25T15:09:41;12.17;54.55
80134;SHT30;69443;51.442;10.564;2023-04-25T15:12:06;12.20;54.38
80134;SHT30;69443;51.442;10.564;2023-04-25T15:14:32;12.24;54.35
80134;SHT30;69443;51.442;10.564;2023-04-25T15:16:59;12.26;53.70
80134;SHT30;69443;51.442;10.564;2023-04-25T15:19:25;12.29;53.82
80134;SHT30;69443;51.442;10.564;2023-04-25T15:21:51;12.31;53.46
80134;SHT30;69443;51.442;10.564;2023-04-25T15:24:16;12.36;53.38
80134;SHT30;69443;51.442;10.564;2023-04-25T15:26:42;12.37;53.17
80134;SHT30;69443;51.442;10.564;2023-04-25T15:29:07;12.40;53.19
80134;SHT30;69443;51.442;10.564;2023-04-25T15:31:32;12.40;53.03
80134;SHT30;69443;51.442;10.564;2023-04-25T15:33:58;12.42;52.88